sensor_id;sensor_type;location;lat;lon;timestamp;P1;durP1;ratioP1;P2;durP2;ratioP2
28920;SDS011;16035;53.594;9.952;2023-11-21T00:00:05;13.00;;;8.43;;
28920;SDS011;16035;53.594;9.952;2023-11-21T00:02:11;14.50;;;7.28;;
28920;SDS011;16035;53.594;9.952;2023-11-21T00:04:11;11.70;;;7.27;;
28920;SDS011;16035;53.594;9.952;2023-11-21T00:06:11;14.47;;;7.63;;
28920;SDS011;16035;53.594;9.952;2023-11-21T00:08:12;12.63;;;7.63;;
28920;SDS011;16035;53.594;9.952;2023-11-21T00:10:12;12.93;;;7.83;;
28920;SDS011;16035;53.594;9.952;2023-11-21T00:12:14;16.00;;;7.82;;
28920;SDS011;16035;53.594;9.952;2023-11-21T00:14:14;12.57;;;7.83;;
28920;SDS011;16035;53.594;9.952;2023-11-21T00:16:15;11.13;;;6.97;;
28920;SDS011;16035;53.594;9.952;2023-11-21T00:18:15;11.43;;;7.57;;
28920;SDS011;16035;53.594;9.952;2023-11-21T00:20:16;13.50;;;8.30;;
28920;SDS011;16035;53.594;9.952;2023-11-21T00:22:17;13.07;;;8.20;;
28920;SDS011;16035;53.594;9.952;2023-11-21T00:24:17;16.00;;;8.93;;
28920;SDS011;16035;53.594;9.952;2023-11-21T00:26:17;37.67;;;22.37;;
28920;SDS011;16035;53.594;9.952;2023-11-21T00:28:17;89.70;;;48.03;;
28920;SDS011;16035;53.594;9.952;2023-11-21T00:30:18;82.03;;;41.80;;
28920;SDS011;16035;53.594;9.952;2023-11-21T00:32:20;20.88;;;13.18;;
28920;SDS011;16035;53.594;9.952;2023-11-21T00:34:20;21.47;;;11.07;;
28920;SDS011;16035;53.594;9.952;2023-11-21T00:36:20;21.80;;;10.73;;
28920;SDS011;16035;53.594;9.952;2023-11-21T00:38:21;20.13;;;10.80;;
28920;SDS011;16035;53.594;9.952;2023-11-21T00:40:21;18.83;;;10.90;;
28920;SDS011;16035;53.594;9.952;2023-11-21T00:42:22;22.33;;;11.43;;
28920;SDS011;16035;53.594;9.952;2023-11-21T00:44:22;19.17;;;10.03;;
28920;SDS011;16035;53.594;9.952;2023-11-21T00:46:23;15.73;;;9.57;;
28920;SDS011;16035;53.594;9.952;2023-11-21T00:48:24;17.40;;;9.88;;
28920;SDS011;16035;53.594;9.952;2023-11-21T00:50:24;16.27;;;7.83;;
28920;SDS011;16035;53.594;9.952;2023-11-21T00:52:24;10.40;;;7.30;;
28920;SDS011;16035;53.594;9.952;2023-11-21T00:54:26;12.53;;;6.93;;
28920;SDS011;16035;53.594;9.952;2023-11-21T00:56:27;13.50;;;6.85;;
28920;SDS011;16035;53.594;9.952;2023-11-21T00:58:28;16.73;;;7.50;;
28920;SDS011;16035;53.594;9.952;2023-11-21T01:00:28;12.67;;;7.67;;
28920;SDS011;16035;53.594;9.952;2023-11-21T01:02:29;13.83;;;7.77;;
28920;SDS011;16035;53.594;9.952;2023-11-21T01:04:29;11.00;;;7.13;;
28920;SDS011;16035;53.594;9.952;2023-11-21T01:06:29;13.23;;;7.40;;
28920;SDS011;16035;53.594;9.952;2023-11-21T01:08:29;14.07;;;8.03;;
28920;SDS011;16035;53.594;9.952;2023-11-21T01:10:31;13.77;;;8.13;;
28920;SDS011;16035;53.594;9.952;2023-11-21T01:12:31;13.77;;;8.37;;
28920;SDS011;16035;53.594;9.952;2023-11-21T01:14:31;11.20;;;7.10;;
28920;SDS011;16035;53.594;9.952;2023-11-21T01:16:32;14.27;;;7.47;;
28920;SDS011;16035;53.594;9.952;2023-11-21T01:18:32;12.73;;;8.00;;
28920;SDS011;16035;53.594;9.952;2023-11-21T01:20:33;17.67;;;8.90;;
28920;SDS011;16035;53.594;9.952;2023-11-21T01:22:33;13.63;;;8.37;;
28920;SDS011;16035;53.594;9.952;2023-11-21T01:24:33;15.57;;;8.13;;
28920;SDS011;16035;53.594;9.952;2023-11-21T01:26:34;17.67;;;8.33;;
28920;SDS011;16035;53.594;9.952;2023-11-21T01:28:34;14.97;;;8.77;;
28920;SDS011;16035;53.594;9.952;2023-11-21T01:30:34;16.73;;;9.03;;
28920;SDS011;16035;53.594;9.952;2023-11-21T01:32:36;14.10;;;8.50;;
28920;SDS011;16035;53.594;9.952;2023-11-21T01:34:36;15.57;;;9.18;;
28920;SDS011;16035;53.594;9.952;2023-11-21T01:36:37;17.10;;;9.53;;
28920;SDS011;16035;53.594;9.952;2023-11-21T01:38:37;19.23;;;9.33;;
28920;SDS011;16035;53.594;9.952;2023-11-21T01:40:38;15.70;;;8.50;;
28920;SDS011;16035;53.594;9.952;2023-11-21T01:42:38;16.17;;;8.50;;
28920;SDS011;16035;53.594;9.952;2023-11-21T01:44:39;15.43;;;8.13;;
28920;SDS011;16035;53.594;9.952;2023-11-21T01:46:40;15.18;;;7.68;;
28920;SDS011;16035;53.594;9.952;2023-11-21T01:50:41;15.50;;;8.07;;
28920;SDS011;16035;53.594;9.952;2023-11-21T01:52:43;15.53;;;7.80;;
28920;SDS011;16035;53.594;9.952;2023-11-21T01:54:45;10.93;;;6.75;;
28920;SDS011;16035;53.594;9.952;2023-11-21T01:56:46;9.60;;;6.30;;
28920;SDS011;16035;53.594;9.952;2023-11-21T01:58:46;12.20;;;7.50;;
28920;SDS011;16035;53.594;9.952;2023-11-21T02:00:47;11.17;;;6.60;;
28920;SDS011;16035;53.594;9.952;2023-11-21T02:02:50;11.65;;;6.85;;
28920;SDS011;16035;53.594;9.952;2023-11-21T02:04:51;9.57;;;6.30;;
28920;SDS011;16035;53.594;9.952;2023-11-21T02:06:51;11.83;;;7.17;;
28920;SDS011;16035;53.594;9.952;2023-11-21T02:08:52;11.77;;;6.03;;
28920;SDS011;16035;53.594;9.952;2023-11-21T02:10:53;8.55;;;5.30;;
28920;SDS011;16035;53.594;9.952;2023-11-21T02:12:53;10.23;;;6.03;;
28920;SDS011;16035;53.594;9.952;2023-11-21T02:14:54;10.23;;;5.80;;
28920;SDS011;16035;53.594;9.952;2023-11-21T02:16:54;10.33;;;5.43;;
28920;SDS011;16035;53.594;9.952;2023-11-21T02:18:57;8.35;;;5.80;;
28920;SDS011;16035;53.594;9.952;2023-11-21T02:20:58;10.52;;;5.88;;
28920;SDS011;16035;53.594;9.952;2023-11-21T02:22:58;7.13;;;5.00;;
28920;SDS011;16035;53.594;9.952;2023-11-21T02:24:59;9.88;;;5.32;;
28920;SDS011;16035;53.594;9.952;2023-11-21T02:26:59;10.63;;;5.30;;
28920;SDS011;16035;53.594;9.952;2023-11-21T02:29:00;9.27;;;5.40;;
28920;SDS011;16035;53.594;9.952;2023-11-21T02:31:00;7.23;;;4.80;;
28920;SDS011;16035;53.594;9.952;2023-11-21T02:33:02;9.57;;;4.57;;
28920;SDS011;16035;53.594;9.952;2023-11-21T02:35:03;7.47;;;5.03;;
28920;SDS011;16035;53.594;9.952;2023-11-21T02:37:07;7.03;;;4.40;;
28920;SDS011;16035;53.594;9.952;2023-11-21T02:39:08;7.40;;;4.97;;
28920;SDS011;16035;53.594;9.952;2023-11-21T02:41:09;9.00;;;5.40;;
28920;SDS011;16035;53.594;9.952;2023-11-21T02:43:09;8.27;;;5.60;;
28920;SDS011;16035;53.594;9.952;2023-11-21T02:45:10;7.10;;;4.57;;
28920;SDS011;16035;53.594;9.952;2023-11-21T02:47:12;8.02;;;4.68;;
28920;SDS011;16035;53.594;9.952;2023-11-21T02:49:13;7.23;;;4.30;;
28920;SDS011;16035;53.594;9.952;2023-11-21T02:51:13;7.63;;;4.87;;
28920;SDS011;16035;53.594;9.952;2023-11-21T02:53:15;7.90;;;4.57;;
28920;SDS011;16035;53.594;9.952;2023-11-21T02:55:16;10.30;;;4.83;;
28920;SDS011;16035;53.594;9.952;2023-11-21T02:57:16;5.40;;;3.93;;
28920;SDS011;16035;53.594;9.952;2023-11-21T02:59:16;7.70;;;4.70;;
28920;SDS011;16035;53.594;9.952;2023-11-21T03:01:17;6.90;;;4.30;;
28920;SDS011;16035;53.594;9.952;2023-11-21T03:03:17;8.23;;;4.67;;
28920;SDS011;16035;53.594;9.952;2023-11-21T03:05:18;6.13;;;4.18;;
28920;SDS011;16035;53.594;9.952;2023-11-21T03:07:19;7.80;;;4.23;;
28920;SDS011;16035;53.594;9.952;2023-11-21T03:09:19;5.80;;;3.97;;
28920;SDS011;16035;53.594;9.952;2023-11-21T03:11:19;6.47;;;4.03;;
28920;SDS011;16035;53.594;9.952;2023-11-21T03:13:19;6.27;;;4.33;;
28920;SDS011;16035;53.594;9.952;2023-11-21T03:15:20;7.13;;;4.47;;
28920;SDS011;16035;53.594;9.952;2023-11-21T03:17:20;6.70;;;4.33;;
28920;SDS011;16035;53.594;9.952;2023-11-21T03:19:21;6.20;;;4.03;;
28920;SDS011;16035;53.594;9.952;2023-11-21T03:21:21;7.83;;;4.07;;
28920;SDS011;16035;53.594;9.952;2023-11-21T03:23:21;6.13;;;4.40;;
28920;SDS011;16035;53.594;9.952;2023-11-21T03:25:22;7.03;;;4.23;;
28920;SDS011;16035;53.594;9.952;2023-11-21T03:27:23;9.32;;;4.53;;
28920;SDS011;16035;53.594;9.952;2023-11-21T03:29:25;6.93;;;4.17;;
28920;SDS011;16035;53.594;9.952;2023-11-21T03:31:26;8.15;;;4.78;;
28920;SDS011;16035;53.594;9.952;2023-11-21T03:33:26;5.93;;;4.23;;
28920;SDS011;16035;53.594;9.952;2023-11-21T03:35:27;10.20;;;5.40;;
28920;SDS011;16035;53.594;9.952;2023-11-21T03:37:27;8.77;;;5.25;;
28920;SDS011;16035;53.594;9.952;2023-11-21T03:39:28;8.20;;;5.13;;
28920;SDS011;16035;53.594;9.952;2023-11-21T03:41:29;7.72;;;4.95;;
28920;SDS011;16035;53.594;9.952;2023-11-21T03:43:29;7.03;;;4.87;;
28920;SDS011;16035;53.594;9.952;2023-11-21T03:45:30;7.83;;;4.87;;
28920;SDS011;16035;53.594;9.952;2023-11-21T03:47:30;8.10;;;4.60;;
28920;SDS011;16035;53.594;9.952;2023-11-21T03:49:31;7.87;;;4.47;;
28920;SDS011;16035;53.594;9.952;2023-11-21T03:51:31;6.03;;;4.20;;
28920;SDS011;16035;53.594;9.952;2023-11-21T03:53:31;7.93;;;4.47;;
28920;SDS011;16035;53.594;9.952;2023-11-21T03:55:32;9.53;;;4.90;;
28920;SDS011;16035;53.594;9.952;2023-11-21T03:57:32;7.00;;;4.10;;
28920;SDS011;16035;53.594;9.952;2023-11-21T03:59:32;7.87;;;4.90;;
28920;SDS011;16035;53.594;9.952;2023-11-21T04:01:32;7.57;;;4.80;;
28920;SDS011;16035;53.594;9.952;2023-11-21T04:03:33;10.90;;;5.27;;
28920;SDS011;16035;53.594;9.952;2023-11-21T04:05:33;10.10;;;4.63;;
28920;SDS011;16035;53.594;9.952;2023-11-21T04:07:33;8.47;;;5.07;;
28920;SDS011;16035;53.594;9.952;2023-11-21T04:09:34;7.57;;;4.63;;
28920;SDS011;16035;53.594;9.952;2023-11-21T04:11:36;7.15;;;4.70;;
28920;SDS011;16035;53.594;9.952;2023-11-21T04:13:36;11.67;;;6.20;;
28920;SDS011;16035;53.594;9.952;2023-11-21T04:15:37;8.60;;;5.20;;
28920;SDS011;16035;53.594;9.952;2023-11-21T04:17:37;11.17;;;5.40;;
28920;SDS011;16035;53.594;9.952;2023-11-21T04:19:37;8.07;;;4.90;;
28920;SDS011;16035;53.594;9.952;2023-11-21T04:21:38;9.87;;;5.23;;
28920;SDS011;16035;53.594;9.952;2023-11-21T04:23:38;12.00;;;5.47;;
28920;SDS011;16035;53.594;9.952;2023-11-21T04:25:39;7.43;;;4.95;;
28920;SDS011;16035;53.594;9.952;2023-11-21T04:27:40;7.80;;;5.40;;
28920;SDS011;16035;53.594;9.952;2023-11-21T04:29:43;7.22;;;5.03;;
28920;SDS011;16035;53.594;9.952;2023-11-21T04:31:44;9.53;;;5.90;;
28920;SDS011;16035;53.594;9.952;2023-11-21T04:33:44;8.80;;;5.90;;
28920;SDS011;16035;53.594;9.952;2023-11-21T04:35:45;8.60;;;5.30;;
28920;SDS011;16035;53.594;9.952;2023-11-21T04:37:46;10.00;;;5.70;;
28920;SDS011;16035;53.594;9.952;2023-11-21T04:39:46;8.63;;;5.40;;
28920;SDS011;16035;53.594;9.952;2023-11-21T04:41:46;9.60;;;5.07;;
28920;SDS011;16035;53.594;9.952;2023-11-21T04:43:47;9.90;;;5.37;;
28920;SDS011;16035;53.594;9.952;2023-11-21T04:45:47;10.17;;;5.97;;
28920;SDS011;16035;53.594;9.952;2023-11-21T04:47:47;9.80;;;5.23;;
28920;SDS011;16035;53.594;9.952;2023-11-21T04:49:48;14.13;;;6.13;;
28920;SDS011;16035;53.594;9.952;2023-11-21T04:51:48;9.90;;;6.00;;
28920;SDS011;16035;53.594;9.952;2023-11-21T04:53:48;8.73;;;5.60;;
28920;SDS011;16035;53.594;9.952;2023-11-21T04:55:49;8.55;;;4.90;;
28920;SDS011;16035;53.594;9.952;2023-11-21T04:57:49;9.50;;;6.23;;
28920;SDS011;16035;53.594;9.952;2023-11-21T04:59:50;11.40;;;5.80;;
28920;SDS011;16035;53.594;9.952;2023-11-21T05:01:50;8.50;;;5.67;;
28920;SDS011;16035;53.594;9.952;2023-11-21T05:03:50;7.80;;;5.67;;
28920;SDS011;16035;53.594;9.952;2023-11-21T05:07:52;9.87;;;5.87;;
28920;SDS011;16035;53.594;9.952;2023-11-21T05:09:53;8.20;;;4.97;;
28920;SDS011;16035;53.594;9.952;2023-11-21T05:11:53;7.47;;;5.03;;
28920;SDS011;16035;53.594;9.952;2023-11-21T05:13:54;10.07;;;4.10;;
28920;SDS011;16035;53.594;9.952;2023-11-21T05:15:56;8.55;;;5.68;;
28920;SDS011;16035;53.594;9.952;2023-11-21T05:17:57;8.73;;;4.97;;
28920;SDS011;16035;53.594;9.952;2023-11-21T05:20:00;11.10;;;6.18;;
28920;SDS011;16035;53.594;9.952;2023-11-21T05:22:03;9.27;;;5.30;;
28920;SDS011;16035;53.594;9.952;2023-11-21T05:24:04;10.57;;;6.03;;
28920;SDS011;16035;53.594;9.952;2023-11-21T05:26:05;8.98;;;5.35;;
28920;SDS011;16035;53.594;9.952;2023-11-21T05:28:05;8.43;;;4.97;;
28920;SDS011;16035;53.594;9.952;2023-11-21T05:30:06;9.10;;;5.82;;
28920;SDS011;16035;53.594;9.952;2023-11-21T05:32:11;7.78;;;5.35;;
28920;SDS011;16035;53.594;9.952;2023-11-21T05:34:12;8.07;;;4.70;;
28920;SDS011;16035;53.594;9.952;2023-11-21T05:36:12;7.90;;;5.30;;
28920;SDS011;16035;53.594;9.952;2023-11-21T05:38:13;9.63;;;5.90;;
28920;SDS011;16035;53.594;9.952;2023-11-21T05:40:13;8.13;;;4.80;;
28920;SDS011;16035;53.594;9.952;2023-11-21T05:42:13;10.20;;;4.97;;
28920;SDS011;16035;53.594;9.952;2023-11-21T05:44:14;6.77;;;4.73;;
28920;SDS011;16035;53.594;9.952;2023-11-21T05:46:14;10.27;;;5.17;;
28920;SDS011;16035;53.594;9.952;2023-11-21T05:48:14;9.67;;;5.60;;
28920;SDS011;16035;53.594;9.952;2023-11-21T05:50:16;9.55;;;5.45;;
28920;SDS011;16035;53.594;9.952;2023-11-21T05:52:17;6.65;;;5.00;;
28920;SDS011;16035;53.594;9.952;2023-11-21T05:54:17;8.60;;;5.40;;
28920;SDS011;16035;53.594;9.952;2023-11-21T05:56:19;8.47;;;5.47;;
28920;SDS011;16035;53.594;9.952;2023-11-21T05:58:19;7.82;;;4.47;;
28920;SDS011;16035;53.594;9.952;2023-11-21T06:00:20;7.10;;;5.00;;
28920;SDS011;16035;53.594;9.952;2023-11-21T06:02:25;7.95;;;5.47;;
28920;SDS011;16035;53.594;9.952;2023-11-21T06:04:25;10.70;;;5.30;;
28920;SDS011;16035;53.594;9.952;2023-11-21T06:06:26;6.73;;;4.93;;
28920;SDS011;16035;53.594;9.952;2023-11-21T06:08:26;8.13;;;5.47;;
28920;SDS011;16035;53.594;9.952;2023-11-21T06:10:26;8.20;;;4.90;;
28920;SDS011;16035;53.594;9.952;2023-11-21T06:12:28;8.25;;;5.55;;
28920;SDS011;16035;53.594;9.952;2023-11-21T06:14:29;4.25;;;3.58;;
28920;SDS011;16035;53.594;9.952;2023-11-21T06:16:29;11.07;;;5.70;;
28920;SDS011;16035;53.594;9.952;2023-11-21T06:18:29;7.83;;;5.60;;
28920;SDS011;16035;53.594;9.952;2023-11-21T06:20:30;12.23;;;5.97;;
28920;SDS011;16035;53.594;9.952;2023-11-21T06:22:30;7.07;;;4.63;;
28920;SDS011;16035;53.594;9.952;2023-11-21T06:24:30;11.20;;;5.63;;
28920;SDS011;16035;53.594;9.952;2023-11-21T06:26:31;10.17;;;5.40;;
28920;SDS011;16035;53.594;9.952;2023-11-21T06:28:31;7.43;;;4.80;;
28920;SDS011;16035;53.594;9.952;2023-11-21T06:30:32;8.80;;;5.93;;
28920;SDS011;16035;53.594;9.952;2023-11-21T06:32:32;11.87;;;5.33;;
28920;SDS011;16035;53.594;9.952;2023-11-21T06:34:32;11.23;;;5.73;;
28920;SDS011;16035;53.594;9.952;2023-11-21T06:36:33;10.03;;;6.13;;
28920;SDS011;16035;53.594;9.952;2023-11-21T06:38:33;8.37;;;5.17;;
28920;SDS011;16035;53.594;9.952;2023-11-21T06:40:34;8.82;;;5.57;;
28920;SDS011;16035;53.594;9.952;2023-11-21T06:42:35;9.00;;;6.47;;
28920;SDS011;16035;53.594;9.952;2023-11-21T06:44:35;9.47;;;5.73;;
28920;SDS011;16035;53.594;9.952;2023-11-21T06:46:37;6.97;;;5.10;;
28920;SDS011;16035;53.594;9.952;2023-11-21T06:48:39;10.40;;;6.13;;
28920;SDS011;16035;53.594;9.952;2023-11-21T06:50:39;29.87;;;14.87;;
28920;SDS011;16035;53.594;9.952;2023-11-21T06:52:40;14.40;;;6.73;;
28920;SDS011;16035;53.594;9.952;2023-11-21T06:54:40;16.03;;;8.13;;
28920;SDS011;16035;53.594;9.952;2023-11-21T06:56:40;12.90;;;7.50;;
28920;SDS011;16035;53.594;9.952;2023-11-21T06:58:41;10.37;;;5.93;;
28920;SDS011;16035;53.594;9.952;2023-11-21T07:00:41;9.87;;;5.83;;
28920;SDS011;16035;53.594;9.952;2023-11-21T07:02:46;9.93;;;6.05;;
28920;SDS011;16035;53.594;9.952;2023-11-21T07:04:47;9.97;;;6.50;;
28920;SDS011;16035;53.594;9.952;2023-11-21T07:06:47;7.70;;;5.50;;
28920;SDS011;16035;53.594;9.952;2023-11-21T07:08:47;11.43;;;5.97;;
28920;SDS011;16035;53.594;9.952;2023-11-21T07:10:47;9.50;;;6.03;;
28920;SDS011;16035;53.594;9.952;2023-11-21T07:12:49;9.00;;;5.25;;
28920;SDS011;16035;53.594;9.952;2023-11-21T07:14:51;9.23;;;5.38;;
28920;SDS011;16035;53.594;9.952;2023-11-21T07:16:51;8.57;;;5.30;;
28920;SDS011;16035;53.594;9.952;2023-11-21T07:18:52;8.48;;;5.32;;
28920;SDS011;16035;53.594;9.952;2023-11-21T07:20:54;8.50;;;5.55;;
28920;SDS011;16035;53.594;9.952;2023-11-21T07:22:55;9.07;;;5.87;;
28920;SDS011;16035;53.594;9.952;2023-11-21T07:24:56;10.50;;;5.97;;
28920;SDS011;16035;53.594;9.952;2023-11-21T07:26:59;8.30;;;5.50;;
28920;SDS011;16035;53.594;9.952;2023-11-21T07:31:01;9.67;;;5.03;;
28920;SDS011;16035;53.594;9.952;2023-11-21T07:33:03;10.52;;;5.53;;
28920;SDS011;16035;53.594;9.952;2023-11-21T07:35:03;9.97;;;5.10;;
28920;SDS011;16035;53.594;9.952;2023-11-21T07:37:04;8.27;;;5.37;;
28920;SDS011;16035;53.594;9.952;2023-11-21T07:39:04;11.13;;;6.50;;
28920;SDS011;16035;53.594;9.952;2023-11-21T07:41:06;11.10;;;5.45;;
28920;SDS011;16035;53.594;9.952;2023-11-21T07:43:10;9.50;;;5.35;;
28920;SDS011;16035;53.594;9.952;2023-11-21T07:45:10;8.70;;;5.20;;
28920;SDS011;16035;53.594;9.952;2023-11-21T07:47:11;9.60;;;5.72;;
28920;SDS011;16035;53.594;9.952;2023-11-21T07:49:12;6.90;;;5.00;;
28920;SDS011;16035;53.594;9.952;2023-11-21T07:51:16;9.27;;;4.80;;
28920;SDS011;16035;53.594;9.952;2023-11-21T07:53:16;8.47;;;4.90;;
28920;SDS011;16035;53.594;9.952;2023-11-21T07:55:17;6.80;;;4.57;;
28920;SDS011;16035;53.594;9.952;2023-11-21T07:57:18;7.35;;;4.68;;
28920;SDS011;16035;53.594;9.952;2023-11-21T07:59:18;6.47;;;4.60;;
28920;SDS011;16035;53.594;9.952;2023-11-21T08:01:18;7.00;;;4.50;;
28920;SDS011;16035;53.594;9.952;2023-11-21T08:03:19;7.83;;;4.43;;
28920;SDS011;16035;53.594;9.952;2023-11-21T08:05:19;7.13;;;4.50;;
28920;SDS011;16035;53.594;9.952;2023-11-21T08:07:19;11.57;;;5.13;;
28920;SDS011;16035;53.594;9.952;2023-11-21T08:09:20;5.10;;;3.10;;
28920;SDS011;16035;53.594;9.952;2023-11-21T08:11:23;6.53;;;3.88;;
28920;SDS011;16035;53.594;9.952;2023-11-21T08:13:24;9.70;;;6.00;;
28920;SDS011;16035;53.594;9.952;2023-11-21T08:15:26;6.93;;;4.38;;
28920;SDS011;16035;53.594;9.952;2023-11-21T08:17:26;6.73;;;4.20;;
28920;SDS011;16035;53.594;9.952;2023-11-21T08:19:26;7.70;;;4.43;;
28920;SDS011;16035;53.594;9.952;2023-11-21T08:21:27;6.40;;;4.03;;
28920;SDS011;16035;53.594;9.952;2023-11-21T08:23:28;8.52;;;4.63;;
28920;SDS011;16035;53.594;9.952;2023-11-21T08:25:29;9.93;;;4.20;;
28920;SDS011;16035;53.594;9.952;2023-11-21T08:27:30;5.65;;;4.25;;
28920;SDS011;16035;53.594;9.952;2023-11-21T08:29:30;8.93;;;4.30;;
28920;SDS011;16035;53.594;9.952;2023-11-21T08:31:31;7.53;;;4.25;;
28920;SDS011;16035;53.594;9.952;2023-11-21T08:33:31;5.67;;;3.83;;
28920;SDS011;16035;53.594;9.952;2023-11-21T08:35:32;4.37;;;3.57;;
28920;SDS011;16035;53.594;9.952;2023-11-21T08:37:32;5.83;;;3.70;;
28920;SDS011;16035;53.594;9.952;2023-11-21T08:39:37;6.72;;;4.35;;
28920;SDS011;16035;53.594;9.952;2023-11-21T08:41:37;5.37;;;3.60;;
28920;SDS011;16035;53.594;9.952;2023-11-21T08:43:38;8.67;;;3.13;;
28920;SDS011;16035;53.594;9.952;2023-11-21T08:45:41;8.85;;;3.67;;
28920;SDS011;16035;53.594;9.952;2023-11-21T08:47:41;5.37;;;3.27;;
28920;SDS011;16035;53.594;9.952;2023-11-21T08:49:44;5.95;;;3.75;;
28920;SDS011;16035;53.594;9.952;2023-11-21T08:51:44;6.70;;;3.50;;
28920;SDS011;16035;53.594;9.952;2023-11-21T08:53:44;4.50;;;3.33;;
28920;SDS011;16035;53.594;9.952;2023-11-21T08:55:45;7.23;;;4.33;;
28920;SDS011;16035;53.594;9.952;2023-11-21T08:57:45;7.00;;;4.10;;
28920;SDS011;16035;53.594;9.952;2023-11-21T08:59:49;6.70;;;4.00;;
28920;SDS011;16035;53.594;9.952;2023-11-21T09:01:55;7.93;;;4.10;;
28920;SDS011;16035;53.594;9.952;2023-11-21T09:03:55;5.60;;;3.30;;
28920;SDS011;16035;53.594;9.952;2023-11-21T09:05:55;8.40;;;4.60;;
28920;SDS011;16035;53.594;9.952;2023-11-21T09:07:56;6.57;;;4.13;;
28920;SDS011;16035;53.594;9.952;2023-11-21T09:09:56;10.93;;;5.87;;
28920;SDS011;16035;53.594;9.952;2023-11-21T09:11:57;6.87;;;4.20;;
28920;SDS011;16035;53.594;9.952;2023-11-21T09:13:57;5.57;;;3.90;;
28920;SDS011;16035;53.594;9.952;2023-11-21T09:15:57;6.43;;;3.67;;
28920;SDS011;16035;53.594;9.952;2023-11-21T09:17:58;7.20;;;3.83;;
28920;SDS011;16035;53.594;9.952;2023-11-21T09:19:58;6.67;;;3.63;;
28920;SDS011;16035;53.594;9.952;2023-11-21T09:21:58;5.07;;;3.23;;
28920;SDS011;16035;53.594;9.952;2023-11-21T09:23:59;7.50;;;3.65;;
28920;SDS011;16035;53.594;9.952;2023-11-21T09:26:00;4.83;;;3.30;;
28920;SDS011;16035;53.594;9.952;2023-11-21T09:28:00;9.07;;;4.05;;
28920;SDS011;16035;53.594;9.952;2023-11-21T09:30:01;4.73;;;3.10;;
28920;SDS011;16035;53.594;9.952;2023-11-21T09:32:02;4.38;;;2.83;;
28920;SDS011;16035;53.594;9.952;2023-11-21T09:34:03;5.38;;;3.03;;
28920;SDS011;16035;53.594;9.952;2023-11-21T09:36:04;8.37;;;3.23;;
28920;SDS011;16035;53.594;9.952;2023-11-21T09:40:11;4.97;;;2.55;;
28920;SDS011;16035;53.594;9.952;2023-11-21T09:42:21;3.55;;;2.40;;
28920;SDS011;16035;53.594;9.952;2023-11-21T09:44:34;3.17;;;2.05;;
28920;SDS011;16035;53.594;9.952;2023-11-21T09:46:35;3.42;;;2.20;;
28920;SDS011;16035;53.594;9.952;2023-11-21T09:48:39;3.75;;;2.03;;
28920;SDS011;16035;53.594;9.952;2023-11-21T09:50:41;4.40;;;2.27;;
28920;SDS011;16035;53.594;9.952;2023-11-21T09:52:51;4.80;;;2.10;;
28920;SDS011;16035;53.594;9.952;2023-11-21T09:54:57;3.88;;;2.00;;
28920;SDS011;16035;53.594;9.952;2023-11-21T09:56:59;3.23;;;2.03;;
28920;SDS011;16035;53.594;9.952;2023-11-21T09:58:59;3.17;;;1.92;;
28920;SDS011;16035;53.594;9.952;2023-11-21T10:01:06;2.63;;;2.08;;
28920;SDS011;16035;53.594;9.952;2023-11-21T10:03:07;2.88;;;1.65;;
28920;SDS011;16035;53.594;9.952;2023-11-21T10:05:08;3.28;;;1.80;;
28920;SDS011;16035;53.594;9.952;2023-11-21T10:07:12;2.13;;;1.92;;
28920;SDS011;16035;53.594;9.952;2023-11-21T10:09:15;2.22;;;1.70;;
28920;SDS011;16035;53.594;9.952;2023-11-21T10:11:17;5.63;;;2.50;;
28920;SDS011;16035;53.594;9.952;2023-11-21T10:13:18;4.35;;;2.53;;
28920;SDS011;16035;53.594;9.952;2023-11-21T10:15:20;3.17;;;2.07;;
28920;SDS011;16035;53.594;9.952;2023-11-21T10:17:22;4.60;;;2.10;;
28920;SDS011;16035;53.594;9.952;2023-11-21T10:19:29;4.32;;;2.03;;
28920;SDS011;16035;53.594;9.952;2023-11-21T10:21:30;3.92;;;1.90;;
28920;SDS011;16035;53.594;9.952;2023-11-21T10:23:31;3.25;;;2.20;;
28920;SDS011;16035;53.594;9.952;2023-11-21T10:25:32;3.47;;;1.90;;
28920;SDS011;16035;53.594;9.952;2023-11-21T10:27:32;3.10;;;2.00;;
28920;SDS011;16035;53.594;9.952;2023-11-21T10:29:33;2.57;;;2.10;;
28920;SDS011;16035;53.594;9.952;2023-11-21T10:31:35;2.28;;;1.65;;
28920;SDS011;16035;53.594;9.952;2023-11-21T10:33:36;3.00;;;1.80;;
28920;SDS011;16035;53.594;9.952;2023-11-21T10:37:42;2.88;;;1.50;;
28920;SDS011;16035;53.594;9.952;2023-11-21T10:39:43;2.23;;;1.40;;
28920;SDS011;16035;53.594;9.952;2023-11-21T10:41:45;2.30;;;2.08;;
28920;SDS011;16035;53.594;9.952;2023-11-21T10:43:49;3.38;;;2.03;;
28920;SDS011;16035;53.594;9.952;2023-11-21T10:45:53;3.08;;;2.03;;
28920;SDS011;16035;53.594;9.952;2023-11-21T10:47:59;3.03;;;1.70;;
28920;SDS011;16035;53.594;9.952;2023-11-21T10:50:00;6.07;;;1.80;;
28920;SDS011;16035;53.594;9.952;2023-11-21T10:52:00;3.08;;;1.83;;
28920;SDS011;16035;53.594;9.952;2023-11-21T10:54:01;4.07;;;1.67;;
28920;SDS011;16035;53.594;9.952;2023-11-21T10:56:05;5.37;;;2.10;;
28920;SDS011;16035;53.594;9.952;2023-11-21T10:58:08;2.28;;;1.73;;
28920;SDS011;16035;53.594;9.952;2023-11-21T11:00:12;6.20;;;1.65;;
28920;SDS011;16035;53.594;9.952;2023-11-21T11:04:22;4.80;;;2.25;;
28920;SDS011;16035;53.594;9.952;2023-11-21T11:06:26;7.45;;;1.70;;
28920;SDS011;16035;53.594;9.952;2023-11-21T11:08:28;9.82;;;2.72;;
28920;SDS011;16035;53.594;9.952;2023-11-21T11:10:29;3.15;;;2.10;;
28920;SDS011;16035;53.594;9.952;2023-11-21T11:12:30;4.20;;;2.43;;
28920;SDS011;16035;53.594;9.952;2023-11-21T11:14:31;4.37;;;1.90;;
28920;SDS011;16035;53.594;9.952;2023-11-21T11:18:32;3.33;;;2.10;;
28920;SDS011;16035;53.594;9.952;2023-11-21T11:20:34;2.10;;;1.80;;
28920;SDS011;16035;53.594;9.952;2023-11-21T11:22:41;2.42;;;1.80;;
28920;SDS011;16035;53.594;9.952;2023-11-21T11:27:11;3.08;;;1.90;;
28920;SDS011;16035;53.594;9.952;2023-11-21T11:30:16;2.45;;;1.70;;
28920;SDS011;16035;53.594;9.952;2023-11-21T11:32:38;3.45;;;1.92;;
28920;SDS011;16035;53.594;9.952;2023-11-21T11:34:53;3.78;;;2.33;;
28920;SDS011;16035;53.594;9.952;2023-11-21T11:37:02;2.58;;;2.05;;
28920;SDS011;16035;53.594;9.952;2023-11-21T11:39:26;5.03;;;2.20;;
28920;SDS011;16035;53.594;9.952;2023-11-21T11:41:34;4.13;;;1.80;;
28920;SDS011;16035;53.594;9.952;2023-11-21T11:43:36;3.35;;;1.90;;
28920;SDS011;16035;53.594;9.952;2023-11-21T11:45:45;3.75;;;1.80;;
28920;SDS011;16035;53.594;9.952;2023-11-21T11:47:56;4.47;;;1.77;;
28920;SDS011;16035;53.594;9.952;2023-11-21T11:50:07;2.17;;;1.67;;
28920;SDS011;16035;53.594;9.952;2023-11-21T11:52:36;3.35;;;2.20;;
28920;SDS011;16035;53.594;9.952;2023-11-21T11:54:39;2.78;;;1.83;;
28920;SDS011;16035;53.594;9.952;2023-11-21T11:56:39;3.93;;;2.00;;
28920;SDS011;16035;53.594;9.952;2023-11-21T11:58:40;5.70;;;1.87;;
28920;SDS011;16035;53.594;9.952;2023-11-21T12:00:41;2.83;;;2.03;;
28920;SDS011;16035;53.594;9.952;2023-11-21T12:02:44;2.87;;;1.57;;
28920;SDS011;16035;53.594;9.952;2023-11-21T12:04:45;2.92;;;2.08;;
28920;SDS011;16035;53.594;9.952;2023-11-21T12:06:45;6.47;;;2.37;;
28920;SDS011;16035;53.594;9.952;2023-11-21T12:08:46;3.35;;;2.38;;
28920;SDS011;16035;53.594;9.952;2023-11-21T12:10:46;5.93;;;2.07;;
28920;SDS011;16035;53.594;9.952;2023-11-21T12:12:49;3.97;;;2.13;;
28920;SDS011;16035;53.594;9.952;2023-11-21T12:14:52;4.05;;;1.80;;
28920;SDS011;16035;53.594;9.952;2023-11-21T12:16:53;5.88;;;1.90;;
28920;SDS011;16035;53.594;9.952;2023-11-21T12:18:53;2.63;;;2.07;;
28920;SDS011;16035;53.594;9.952;2023-11-21T12:20:54;2.43;;;1.63;;
28920;SDS011;16035;53.594;9.952;2023-11-21T12:22:55;4.35;;;1.83;;
28920;SDS011;16035;53.594;9.952;2023-11-21T12:24:59;4.32;;;2.30;;